Saint Paul, Missouri
Current Conditions -  °F | °C
As of 2:26 AM on Tuesday 27 Jan 2015 (Local Time) from KSUS Reporting Station
Overcast Overcast  
Wind Chill: 35°   Ceiling: 2700
Heat Index: 39°   Visibility: 10mi
Dew Point: 34°   Wind: 6mph
Humidity: 81%   Direction: 300°WNW
Pressure: 29.96"   Gusts: NA
Location:  38.8319°N, 90.7188°W
Report Text: KSUS 270826Z 30005KT 10SM BKN027 OVC042 04/01 A2996 RMK AO2
Loading
Personal Weather Stations






























Interactive Weather Map New forecast layout! Learn more

10-Day Weather Forecast

Advertisements
Track Severe Weather on mobile